createdAt,value
2016-08-04T00:01:06.994Z,1003.35
2016-08-04T00:06:06.872Z,1003.46
2016-08-04T00:11:07.485Z,1003.43
2016-08-04T00:16:07.098Z,1003.33
2016-08-04T00:21:06.938Z,1003.46
2016-08-04T00:26:06.734Z,1003.37
2016-08-04T00:31:06.498Z,1003.38
2016-08-04T00:36:06.260Z,1003.37
2016-08-04T00:41:05.868Z,1003.42
2016-08-04T00:46:05.655Z,1003.50
2016-08-04T00:51:05.430Z,1003.48
2016-08-04T00:56:05.500Z,1003.44
2016-08-04T01:01:05.366Z,1003.23
2016-08-04T01:06:05.035Z,1003.29
2016-08-04T01:11:04.819Z,1003.34
2016-08-04T01:16:04.413Z,1003.36
2016-08-04T01:21:04.055Z,1003.38
2016-08-04T01:26:03.750Z,1003.31
2016-08-04T01:31:03.670Z,1003.16
2016-08-04T01:36:03.358Z,1003.19
2016-08-04T01:41:03.040Z,1003.28
2016-08-04T01:46:02.760Z,1003.29
2016-08-04T01:51:02.587Z,1003.32
2016-08-04T01:56:02.596Z,1003.29
2016-08-04T02:01:02.376Z,1003.26
2016-08-04T02:06:02.165Z,1003.19
2016-08-04T02:11:01.799Z,1003.20
2016-08-04T02:16:01.520Z,1003.21
2016-08-04T02:21:01.277Z,1003.20
2016-08-04T02:26:00.998Z,1003.18
2016-08-04T02:31:00.700Z,1003.12
2016-08-04T02:36:00.465Z,1003.09
2016-08-04T02:41:00.281Z,1002.97
2016-08-04T02:46:00.142Z,1003.04
2016-08-04T02:50:59.851Z,1003.09
2016-08-04T02:55:59.561Z,1003.05
2016-08-04T03:00:59.287Z,1003.06
2016-08-04T03:05:59.052Z,1003.09
2016-08-04T03:10:58.711Z,1003.11
2016-08-04T03:15:58.463Z,1003.07
2016-08-04T03:20:58.229Z,1003.09
2016-08-04T03:25:57.991Z,1003.07
2016-08-04T03:30:57.729Z,1003.09
2016-08-04T03:35:57.550Z,1003.16
2016-08-04T03:40:57.377Z,1003.14
2016-08-04T03:45:57.260Z,1003.22
2016-08-04T03:50:57.155Z,1003.23
2016-08-04T03:55:56.790Z,1003.26
2016-08-04T04:00:56.440Z,1003.12
2016-08-04T04:05:56.138Z,1003.19
2016-08-04T04:10:56.005Z,1003.09
2016-08-04T04:15:55.892Z,1003.18
2016-08-04T04:20:55.552Z,1003.17
2016-08-04T04:25:55.399Z,1003.25
2016-08-04T04:30:55.133Z,1003.25
2016-08-04T04:35:54.932Z,1003.15
2016-08-04T04:40:54.813Z,1003.21
2016-08-04T04:45:54.822Z,1003.11
2016-08-04T04:50:54.618Z,1003.21
2016-08-04T04:55:54.428Z,1003.20
2016-08-04T05:00:54.246Z,1003.19
2016-08-04T05:10:53.681Z,1003.27
2016-08-04T05:15:53.537Z,1003.29
2016-08-04T05:25:52.692Z,1003.32
2016-08-04T05:30:52.394Z,1003.38
2016-08-04T05:35:52.243Z,1003.35
2016-08-04T05:40:52.121Z,1003.36
2016-08-04T05:45:51.948Z,1003.35
2016-08-04T05:50:51.841Z,1003.29
2016-08-04T05:55:51.768Z,1003.38
2016-08-04T06:00:51.651Z,1003.50
2016-08-04T06:05:51.496Z,1003.52
2016-08-04T06:10:51.219Z,1003.63
2016-08-04T06:15:51.066Z,1003.70
2016-08-04T06:20:51.086Z,1003.73
2016-08-04T06:25:50.867Z,1003.67
2016-08-04T06:30:50.555Z,1003.67
2016-08-04T06:35:50.576Z,1003.60
2016-08-04T06:40:50.255Z,1003.46
2016-08-04T06:45:50.277Z,1003.56
2016-08-04T06:50:50.017Z,1003.50
2016-08-04T06:55:49.734Z,1003.65
2016-08-04T07:00:49.926Z,1003.64
2016-08-04T07:05:49.581Z,1003.61
2016-08-04T07:10:49.530Z,1003.56
2016-08-04T07:15:49.440Z,1003.49
2016-08-04T07:20:49.185Z,1003.63
2016-08-04T07:25:49.019Z,1003.73
2016-08-04T07:30:48.780Z,1003.69
2016-08-04T07:35:48.623Z,1003.94
2016-08-04T07:40:48.335Z,1003.89
2016-08-04T07:45:48.024Z,1004.08
2016-08-04T07:50:47.858Z,1004.07
2016-08-04T07:55:47.746Z,1004.02
2016-08-04T08:00:47.426Z,1004.03
2016-08-04T08:05:47.144Z,1003.90
2016-08-04T08:10:47.873Z,1003.98
2016-08-04T08:15:47.452Z,1004.07
2016-08-04T08:20:47.298Z,1004.11
2016-08-04T08:25:46.876Z,1004.08
2016-08-04T08:30:46.702Z,1004.14
2016-08-04T08:35:46.752Z,1004.21
2016-08-04T08:40:46.496Z,1004.21
2016-08-04T08:45:46.248Z,1004.18
2016-08-04T08:50:46.116Z,1004.32
2016-08-04T08:55:45.875Z,1004.23
2016-08-04T09:00:45.670Z,1004.27
2016-08-04T09:05:45.444Z,1004.26
2016-08-04T09:10:45.224Z,1004.20
2016-08-04T09:15:45.154Z,1004.13
2016-08-04T09:20:45.069Z,1004.14
2016-08-04T09:25:44.816Z,1004.23
2016-08-04T09:30:44.661Z,1004.26
2016-08-04T09:35:44.515Z,1004.39
2016-08-04T09:40:44.445Z,1004.44
2016-08-04T09:45:44.294Z,1004.43
2016-08-04T09:50:44.074Z,1004.24
2016-08-04T09:55:44.291Z,1004.23
2016-08-04T10:00:44.082Z,1004.36
2016-08-04T10:05:43.764Z,1004.36
2016-08-04T10:10:43.504Z,1004.27
2016-08-04T10:15:43.173Z,1004.23
2016-08-04T10:20:43.212Z,1004.28
2016-08-04T10:25:43.106Z,1004.23
2016-08-04T10:30:42.921Z,1004.27
2016-08-04T10:35:42.824Z,1004.31
2016-08-04T10:40:42.792Z,1004.29
2016-08-04T10:45:42.442Z,1004.35
2016-08-04T10:50:42.287Z,1004.38
2016-08-04T10:55:42.194Z,1004.46
2016-08-04T11:00:41.668Z,1004.40
2016-08-04T11:05:41.341Z,1004.36
2016-08-04T11:10:41.252Z,1004.44
2016-08-04T11:15:41.042Z,1004.48
2016-08-04T11:20:40.687Z,1004.49
2016-08-04T11:25:41.006Z,1004.52
2016-08-04T11:30:41.774Z,1004.45
2016-08-04T11:35:42.247Z,1004.39
2016-08-04T11:40:42.772Z,1004.40
2016-08-04T11:45:43.411Z,1004.45
2016-08-04T11:50:43.289Z,1004.42
2016-08-04T11:55:43.031Z,1004.45
2016-08-04T12:00:42.699Z,1004.53
2016-08-04T12:05:42.528Z,1004.63
2016-08-04T12:10:42.370Z,1004.50
2016-08-04T12:15:42.347Z,1004.57
2016-08-04T12:20:42.095Z,1004.62
2016-08-04T12:25:41.770Z,1004.62
2016-08-04T12:30:41.794Z,1004.73
2016-08-04T12:35:41.293Z,1004.83
2016-08-04T12:40:40.867Z,1004.66
2016-08-04T12:45:40.662Z,1004.73
2016-08-04T12:50:40.350Z,1004.74
2016-08-04T12:55:40.139Z,1004.75
2016-08-04T13:00:39.819Z,1004.77
2016-08-04T13:05:39.534Z,1004.80
2016-08-04T13:10:39.148Z,1004.79
2016-08-04T13:15:39.938Z,1004.91
2016-08-04T13:20:39.511Z,1004.91
2016-08-04T13:25:39.170Z,1004.84
2016-08-04T13:30:38.750Z,1004.91
2016-08-04T13:35:38.585Z,1004.83
2016-08-04T13:40:38.286Z,1004.82
2016-08-04T13:45:37.913Z,1004.84
2016-08-04T13:50:37.515Z,1004.91
2016-08-04T13:55:37.244Z,1004.88
2016-08-04T14:00:37.060Z,1004.93
2016-08-04T14:05:36.901Z,1004.90
2016-08-04T14:10:36.558Z,1004.85
2016-08-04T14:15:36.168Z,1004.73
2016-08-04T14:20:35.880Z,1004.76
2016-08-04T14:25:35.558Z,1004.67
2016-08-04T14:30:35.142Z,1004.58
2016-08-04T14:35:35.153Z,1004.54
2016-08-04T14:40:34.840Z,1004.51
2016-08-04T14:45:34.523Z,1004.52
2016-08-04T14:50:34.328Z,1004.50
2016-08-04T14:55:33.973Z,1004.57
2016-08-04T15:00:33.687Z,1004.66
2016-08-04T15:05:33.465Z,1004.76
2016-08-04T15:10:33.263Z,1004.78
2016-08-04T15:15:33.177Z,1004.62
2016-08-04T15:20:32.766Z,1004.66
2016-08-04T15:25:32.395Z,1004.64
2016-08-04T15:30:32.086Z,1004.55
2016-08-04T15:35:31.954Z,1004.51
2016-08-04T15:40:31.618Z,1004.55
2016-08-04T15:45:31.477Z,1004.50
2016-08-04T15:50:31.275Z,1004.48
2016-08-04T15:55:31.098Z,1004.51
2016-08-04T16:00:30.724Z,1004.48
2016-08-04T16:05:30.409Z,1004.54
2016-08-04T16:10:30.120Z,1004.44
2016-08-04T16:15:29.965Z,1004.37
2016-08-04T16:20:29.578Z,1004.35
2016-08-04T16:25:29.173Z,1004.35
2016-08-04T16:30:29.121Z,1004.47
2016-08-04T16:35:28.888Z,1004.47
2016-08-04T16:40:28.588Z,1004.48
2016-08-04T16:45:28.287Z,1004.46
2016-08-04T16:50:27.941Z,1004.46
2016-08-04T16:55:27.822Z,1004.37
2016-08-04T17:00:27.665Z,1004.36
2016-08-04T17:05:27.525Z,1004.33
2016-08-04T17:10:27.181Z,1004.44
2016-08-04T17:15:26.959Z,1004.41
2016-08-04T17:20:26.593Z,1004.38
2016-08-04T17:25:26.418Z,1004.46
2016-08-04T17:30:26.059Z,1004.45
2016-08-04T17:35:25.752Z,1004.49
2016-08-04T17:40:25.401Z,1004.48
2016-08-04T17:45:25.060Z,1004.42
2016-08-04T17:50:24.841Z,1004.40
2016-08-04T17:55:24.585Z,1004.58
2016-08-04T18:00:24.122Z,1004.52
2016-08-04T18:05:23.861Z,1004.60
2016-08-04T18:10:23.504Z,1004.65
2016-08-04T18:15:23.122Z,1004.84
2016-08-04T18:20:23.132Z,1004.86
2016-08-04T18:25:22.774Z,1005.03
2016-08-04T18:30:22.392Z,1005.08
2016-08-04T18:35:22.214Z,1004.92
2016-08-04T18:40:22.181Z,1004.85
2016-08-04T18:45:21.690Z,1004.89
2016-08-04T18:50:21.280Z,1004.94
2016-08-04T18:55:20.988Z,1004.99
2016-08-04T19:00:20.900Z,1005.15
2016-08-04T19:05:20.611Z,1005.11
2016-08-04T19:10:20.358Z,1005.06
2016-08-04T19:15:20.070Z,1004.99
2016-08-04T19:20:19.884Z,1005.10
2016-08-04T19:25:19.639Z,1005.15
2016-08-04T19:30:19.350Z,1005.20
2016-08-04T19:35:19.344Z,1005.33
2016-08-04T19:40:19.194Z,1005.43
2016-08-04T19:45:19.037Z,1005.73
2016-08-04T19:50:18.690Z,1005.93
2016-08-04T19:55:18.451Z,1005.85
2016-08-04T20:00:18.302Z,1005.77
2016-08-04T20:05:17.955Z,1005.77
2016-08-04T20:10:17.661Z,1005.82
2016-08-04T20:15:17.421Z,1005.72
2016-08-04T20:20:17.185Z,1005.80
2016-08-04T20:25:16.870Z,1005.90
2016-08-04T20:30:16.543Z,1005.88
2016-08-04T20:35:16.292Z,1005.88
2016-08-04T20:40:16.020Z,1005.80
2016-08-04T20:45:15.830Z,1005.75
2016-08-04T20:50:15.500Z,1005.91
2016-08-04T20:55:15.260Z,1005.94
2016-08-04T21:00:14.909Z,1005.84
2016-08-04T21:05:14.790Z,1005.87
2016-08-04T21:10:14.361Z,1005.84
2016-08-04T21:15:14.083Z,1005.85
2016-08-04T21:20:13.924Z,1005.89
2016-08-04T21:25:13.542Z,1005.88
2016-08-04T21:30:13.310Z,1005.99
2016-08-04T21:35:13.086Z,1006.00
2016-08-04T21:40:12.780Z,1006.05
2016-08-04T21:45:12.617Z,1006.13
2016-08-04T21:50:12.323Z,1006.11
2016-08-04T21:55:12.124Z,1006.16
2016-08-04T22:00:11.954Z,1006.16
2016-08-04T22:05:11.804Z,1006.15
2016-08-04T22:10:11.427Z,1006.29
2016-08-04T22:15:11.131Z,1006.25
2016-08-04T22:20:10.714Z,1006.41
2016-08-04T22:25:10.516Z,1006.35
2016-08-04T22:30:10.299Z,1006.17
2016-08-04T22:35:10.091Z,1006.04
2016-08-04T22:40:09.894Z,1006.11
2016-08-04T22:45:09.646Z,1006.14
2016-08-04T22:50:09.339Z,1006.16
2016-08-04T22:55:08.897Z,1006.16
2016-08-04T23:00:08.609Z,1006.20
2016-08-04T23:05:08.482Z,1006.28
2016-08-04T23:10:08.308Z,1006.22
2016-08-04T23:15:08.216Z,1006.15
2016-08-04T23:20:08.019Z,1006.13
2016-08-04T23:25:07.958Z,1006.12
2016-08-04T23:30:07.784Z,1006.12
2016-08-04T23:35:07.524Z,1006.25
2016-08-04T23:40:07.306Z,1006.21
2016-08-04T23:45:07.114Z,1006.32
2016-08-04T23:50:06.884Z,1006.39
